Time;durP1;ratioP1;P1;durP2;ratioP2;P2;SDS_P1;SDS_P2;PMS_P1;PMS_P2;Temp;Humidity;BMP_temperature;BMP_pressure;BME280_temperature;BME280_humidity;BME280_pressure;Samples;Min_cycle;Max_cycle;Signal;HPM_P1;HPM_P2
2024/01/13 00:00:41;;;;;;;27.60;14.77;;;1.60;99.90;;;;;;4783423;29;20186;-86
2024/01/13 00:03:08;;;;;;;29.70;15.10;;;1.60;99.90;;;;;;4777913;29;20203;-89
2024/01/13 00:05:34;;;;;;;26.07;15.10;;;1.60;99.90;;;;;;4782222;29;20201;-87
2024/01/13 00:08:02;;;;;;;26.97;15.30;;;1.60;99.90;;;;;;4806649;29;20535;-85
2024/01/13 00:10:28;;;;;;;25.90;14.90;;;1.60;99.90;;;;;;4790411;29;20634;-88
2024/01/13 00:12:54;;;;;;;26.93;14.87;;;1.70;99.90;;;;;;4790976;29;20198;-87
2024/01/13 00:15:24;;;;;;;28.47;14.37;;;1.70;99.90;;;;;;4787276;29;20257;-87
2024/01/13 00:17:49;;;;;;;25.87;14.43;;;1.70;99.90;;;;;;4806797;29;20253;-87
2024/01/13 00:20:15;;;;;;;31.27;14.40;;;1.80;99.90;;;;;;5204279;24;20259;-82
2024/01/13 00:22:47;;;;;;;23.00;13.67;;;1.80;99.90;;;;;;4769019;30;20192;-80
2024/01/13 00:25:14;;;;;;;27.47;14.07;;;1.80;99.90;;;;;;4770190;30;20191;-79
2024/01/13 00:27:40;;;;;;;24.27;14.07;;;1.70;99.90;;;;;;4770408;30;20203;-79
2024/01/13 00:30:06;;;;;;;23.10;13.73;;;1.70;99.90;;;;;;4762661;30;20193;-79
2024/01/13 00:32:32;;;;;;;25.73;14.13;;;1.70;99.90;;;;;;4770101;30;20200;-79
2024/01/13 00:34:57;;;;;;;26.37;14.30;;;1.70;99.90;;;;;;4762818;30;20266;-78
2024/01/13 00:37:23;;;;;;;23.23;14.00;;;1.70;99.90;;;;;;4762766;30;20231;-79
2024/01/13 00:39:49;;;;;;;23.23;13.03;;;1.70;99.90;;;;;;4769082;30;20247;-79
2024/01/13 00:42:15;;;;;;;23.77;13.83;;;1.70;99.90;;;;;;4770064;30;20265;-80
2024/01/13 00:44:40;;;;;;;24.63;13.87;;;1.70;99.90;;;;;;4770146;30;20650;-80
2024/01/13 00:47:06;;;;;;;26.70;14.17;;;1.70;99.90;;;;;;4762554;30;20514;-80
2024/01/13 00:49:32;;;;;;;21.50;12.77;;;1.70;99.90;;;;;;4770148;30;20648;-80
2024/01/13 00:51:57;;;;;;;20.27;12.67;;;1.70;99.90;;;;;;4767347;30;20192;-80
2024/01/13 00:54:23;;;;;;;25.87;13.93;;;1.70;99.90;;;;;;4772228;30;20188;-80
2024/01/13 00:56:49;;;;;;;24.20;13.03;;;1.70;99.90;;;;;;4773491;30;20224;-80
2024/01/13 00:59:15;;;;;;;22.83;12.97;;;1.70;99.90;;;;;;4742178;30;20263;-82
2024/01/13 01:01:41;;;;;;;22.00;13.47;;;1.70;99.90;;;;;;4773168;30;20192;-81
2024/01/13 01:04:06;;;;;;;24.03;13.63;;;1.60;99.90;;;;;;4773374;30;20192;-80
2024/01/13 01:06:32;;;;;;;21.13;12.80;;;1.70;99.90;;;;;;4772913;30;20206;-80
2024/01/13 01:08:58;;;;;;;21.50;12.63;;;1.60;99.90;;;;;;4773132;30;20641;-80
2024/01/13 01:11:24;;;;;;;20.67;12.57;;;1.60;99.90;;;;;;4772559;30;20271;-80
2024/01/13 01:13:50;;;;;;;19.97;11.67;;;1.70;99.90;;;;;;4773039;30;20273;-81
2024/01/13 01:16:16;;;;;;;19.53;11.87;;;1.70;99.90;;;;;;4772665;30;20255;-80
2024/01/13 01:18:42;;;;;;;22.37;13.43;;;1.70;99.90;;;;;;4772988;30;20191;-80
2024/01/13 01:21:08;;;;;;;20.07;12.10;;;1.70;99.90;;;;;;4770051;30;20683;-80
2024/01/13 01:23:33;;;;;;;19.73;12.20;;;1.70;99.90;;;;;;4769121;30;20192;-81
2024/01/13 01:25:59;;;;;;;18.97;11.70;;;1.70;99.90;;;;;;4756710;30;20248;-80
2024/01/13 01:28:25;;;;;;;20.40;12.50;;;1.70;99.90;;;;;;4772516;30;20191;-80
2024/01/13 01:30:50;;;;;;;20.60;12.23;;;1.70;99.90;;;;;;4772646;30;20202;-80
2024/01/13 01:33:16;;;;;;;21.70;12.43;;;1.60;99.90;;;;;;4772643;30;20208;-80
2024/01/13 01:35:42;;;;;;;21.03;12.77;;;1.60;99.90;;;;;;4772483;30;20215;-79
2024/01/13 01:38:07;;;;;;;19.97;11.93;;;1.60;99.90;;;;;;4772446;30;20253;-79
2024/01/13 01:40:35;;;;;;;23.20;13.17;;;1.60;99.90;;;;;;4772506;30;20192;-79
2024/01/13 01:43:00;;;;;;;21.07;12.60;;;1.70;99.90;;;;;;4772226;30;20188;-79
2024/01/13 01:45:26;;;;;;;19.73;12.20;;;1.80;99.90;;;;;;4772508;30;20184;-79
2024/01/13 01:47:53;;;;;;;20.73;11.90;;;1.70;99.90;;;;;;4772310;30;20192;-80
2024/01/13 01:50:20;;;;;;;19.50;12.03;;;1.70;99.90;;;;;;4772133;30;20214;-79
2024/01/13 01:52:46;;;;;;;21.40;12.27;;;1.70;99.90;;;;;;4763817;30;20193;-80
2024/01/13 01:55:13;;;;;;;22.37;12.20;;;1.70;99.90;;;;;;4747526;30;20210;-79
2024/01/13 01:57:38;;;;;;;20.63;12.33;;;1.70;99.90;;;;;;4771830;30;20226;-80
2024/01/13 02:00:08;;;;;;;23.90;12.47;;;1.60;99.90;;;;;;4755970;30;20541;-78
2024/01/13 02:02:35;;;;;;;20.33;12.43;;;1.70;99.90;;;;;;4765327;30;20190;-80
2024/01/13 02:05:02;;;;;;;21.20;12.33;;;1.70;99.90;;;;;;4771628;30;20195;-82
2024/01/13 02:07:28;;;;;;;20.43;11.77;;;1.70;99.90;;;;;;4772079;30;20191;-81
2024/01/13 02:09:54;;;;;;;21.47;12.43;;;1.70;99.90;;;;;;4772247;30;20644;-80
2024/01/13 02:12:20;;;;;;;23.90;13.03;;;1.70;99.90;;;;;;4770308;30;20278;-80
2024/01/13 02:14:45;;;;;;;23.17;12.57;;;1.70;99.90;;;;;;4772321;30;20562;-80
2024/01/13 02:17:11;;;;;;;20.70;12.47;;;1.80;99.90;;;;;;4772120;30;20223;-80
2024/01/13 02:19:37;;;;;;;23.00;13.57;;;1.80;99.90;;;;;;4772216;30;20188;-80
2024/01/13 02:24:51;;;;;;;23.27;13.63;;;1.70;99.90;;;;;;4747331;30;20212;-80
2024/01/13 02:27:16;;;;;;;27.53;13.90;;;1.70;99.90;;;;;;4746976;30;20201;-81
2024/01/13 02:29:42;;;;;;;25.93;14.93;;;1.70;99.90;;;;;;4754595;30;20244;-80
2024/01/13 02:32:09;;;;;;;27.57;14.83;;;1.70;99.90;;;;;;4754233;30;20220;-81
2024/01/13 02:34:34;;;;;;;24.70;14.40;;;1.70;99.90;;;;;;4754654;30;20188;-81
2024/01/13 02:37:00;;;;;;;25.83;15.17;;;1.70;99.90;;;;;;4753628;30;20235;-80
2024/01/13 02:39:26;;;;;;;28.70;15.57;;;1.80;99.90;;;;;;4753993;30;20547;-80
2024/01/13 02:41:51;;;;;;;26.87;14.73;;;1.80;99.90;;;;;;4754336;30;20328;-79
2024/01/13 02:44:17;;;;;;;29.13;15.33;;;1.70;99.90;;;;;;4753890;30;20656;-79
2024/01/13 02:46:43;;;;;;;26.00;13.90;;;1.70;99.90;;;;;;4754014;30;20196;-79
2024/01/13 02:49:09;;;;;;;31.20;14.30;;;1.60;99.90;;;;;;4753846;30;20224;-79
2024/01/13 02:51:34;;;;;;;26.33;14.17;;;1.60;99.90;;;;;;4753686;30;20192;-78
2024/01/13 02:54:00;;;;;;;26.30;14.20;;;1.70;99.90;;;;;;4764194;30;20605;-79
2024/01/13 02:56:26;;;;;;;25.53;13.77;;;1.60;99.90;;;;;;4753879;30;20269;-79
2024/01/13 02:58:51;;;;;;;30.50;15.17;;;1.60;99.90;;;;;;4753769;30;20210;-80
2024/01/13 03:01:17;;;;;;;28.00;15.27;;;1.60;99.90;;;;;;4752243;30;20640;-80
2024/01/13 03:03:43;;;;;;;30.67;15.20;;;1.60;99.90;;;;;;4767387;30;20212;-79
2024/01/13 03:06:09;;;;;;;28.53;14.93;;;1.60;99.90;;;;;;4753315;30;20279;-80
2024/01/13 03:08:35;;;;;;;30.83;14.90;;;1.70;99.90;;;;;;4737784;30;20203;-79
2024/01/13 03:11:01;;;;;;;24.67;14.13;;;1.70;99.90;;;;;;4753227;30;20208;-82
2024/01/13 03:13:26;;;;;;;23.83;14.20;;;1.80;99.90;;;;;;4753784;30;20621;-80
2024/01/13 03:15:52;;;;;;;26.83;15.17;;;1.70;99.90;;;;;;4753238;30;20643;-79
2024/01/13 03:18:18;;;;;;;24.17;13.50;;;1.80;99.90;;;;;;4745744;30;20279;-80
2024/01/13 03:20:43;;;;;;;24.70;14.30;;;1.80;99.90;;;;;;4753695;30;20297;-80
2024/01/13 03:23:09;;;;;;;22.40;13.10;;;1.80;99.90;;;;;;4767196;30;20283;-79
2024/01/13 03:25:35;;;;;;;22.03;13.53;;;1.80;99.90;;;;;;4755283;30;20199;-80
2024/01/13 03:28:00;;;;;;;18.67;12.03;;;1.70;99.90;;;;;;4747842;30;20187;-79
2024/01/13 03:30:27;;;;;;;19.47;12.40;;;1.70;99.90;;;;;;4771483;30;20191;-80
2024/01/13 03:32:52;;;;;;;25.23;13.13;;;1.80;99.90;;;;;;4770172;30;20198;-81
2024/01/13 03:35:18;;;;;;;22.47;13.03;;;1.80;99.90;;;;;;4754882;30;20199;-81
2024/01/13 03:37:44;;;;;;;19.77;11.33;;;1.70;99.90;;;;;;4770953;30;20251;-80
2024/01/13 03:40:10;;;;;;;20.23;12.17;;;1.70;99.90;;;;;;4771203;30;20196;-79
2024/01/13 03:42:35;;;;;;;19.27;11.80;;;1.80;99.90;;;;;;4771452;30;20530;-80
2024/01/13 03:45:01;;;;;;;17.77;10.77;;;1.80;99.90;;;;;;4771328;30;20233;-82
2024/01/13 03:47:27;;;;;;;18.40;11.10;;;1.80;99.90;;;;;;4771305;30;20219;-79
2024/01/13 03:49:52;;;;;;;17.43;11.10;;;1.90;99.90;;;;;;4771270;30;20578;-81
2024/01/13 03:52:18;;;;;;;14.43;9.77;;;1.90;99.90;;;;;;4767483;30;20283;-80
2024/01/13 03:54:45;;;;;;;14.07;9.40;;;1.80;99.90;;;;;;4769864;30;20601;-79
2024/01/13 03:57:10;;;;;;;18.00;9.47;;;1.80;99.90;;;;;;4770800;30;20215;-80
2024/01/13 03:59:36;;;;;;;14.53;9.27;;;1.80;99.90;;;;;;4766777;30;20534;-80
2024/01/13 04:02:02;;;;;;;14.80;9.93;;;1.90;99.90;;;;;;4768507;30;20226;-79
2024/01/13 04:04:28;;;;;;;13.70;8.70;;;1.90;99.90;;;;;;4770115;30;20582;-80
2024/01/13 04:06:53;;;;;;;14.73;8.83;;;1.90;99.90;;;;;;4771223;30;20196;-80
2024/01/13 04:09:19;;;;;;;13.00;8.50;;;1.80;99.90;;;;;;4770964;30;20655;-80
2024/01/13 04:11:45;;;;;;;13.40;8.60;;;1.90;99.90;;;;;;4771149;30;20188;-81
2024/01/13 04:14:10;;;;;;;16.07;9.17;;;1.90;99.90;;;;;;4771070;30;20528;-80
2024/01/13 04:16:36;;;;;;;15.67;8.67;;;1.80;99.90;;;;;;4771341;30;20235;-80
2024/01/13 04:19:02;;;;;;;13.00;8.30;;;2.00;99.90;;;;;;4771040;30;20187;-81
2024/01/13 04:21:27;;;;;;;11.20;7.63;;;1.80;99.90;;;;;;4769541;30;20621;-80
2024/01/13 04:23:53;;;;;;;12.00;7.43;;;1.80;99.90;;;;;;4767910;30;20528;-80
2024/01/13 04:26:21;;;;;;;12.30;7.77;;;1.80;99.90;;;;;;4771029;30;20246;-81
2024/01/13 04:28:47;;;;;;;11.30;7.47;;;1.70;99.90;;;;;;4773240;30;20672;-80
2024/01/13 04:31:14;;;;;;;11.63;7.20;;;1.80;99.90;;;;;;4773236;30;20291;-80
2024/01/13 04:33:39;;;;;;;10.23;6.53;;;1.70;99.90;;;;;;4774595;30;20245;-81
2024/01/13 04:36:05;;;;;;;11.03;7.30;;;1.70;99.90;;;;;;4773282;30;20200;-80
2024/01/13 04:38:31;;;;;;;11.47;7.53;;;1.80;99.90;;;;;;4767469;30;20275;-80
2024/01/13 04:40:57;;;;;;;7.20;5.60;;;1.70;99.90;;;;;;4772886;30;20308;-82
2024/01/13 04:43:22;;;;;;;8.30;5.50;;;1.80;99.90;;;;;;4772712;30;20237;-81
2024/01/13 04:45:48;;;;;;;8.10;5.40;;;1.70;99.90;;;;;;4774017;30;20629;-80
2024/01/13 04:48:18;;;;;;;9.13;5.27;;;1.80;99.90;;;;;;4773881;30;20519;-80
2024/01/13 04:50:44;;;;;;;11.40;6.37;;;1.80;99.90;;;;;;4773459;30;20195;-80
2024/01/13 04:53:10;;;;;;;7.70;5.33;;;1.70;99.90;;;;;;4770958;30;20184;-79
2024/01/13 04:55:35;;;;;;;9.23;5.97;;;1.80;99.90;;;;;;4773952;30;20241;-81
2024/01/13 04:58:01;;;;;;;8.47;6.30;;;1.70;99.90;;;;;;4773888;30;20250;-83
2024/01/13 05:00:27;;;;;;;8.30;6.07;;;1.70;99.90;;;;;;4773850;30;20321;-81
2024/01/13 05:02:53;;;;;;;8.60;6.37;;;1.70;99.90;;;;;;4773819;30;20192;-82
2024/01/13 05:05:19;;;;;;;9.00;6.07;;;1.60;99.90;;;;;;4773329;30;20188;-81
2024/01/13 05:07:44;;;;;;;8.83;5.80;;;1.60;99.90;;;;;;4773319;30;20531;-81
2024/01/13 05:10:11;;;;;;;10.40;6.20;;;1.60;99.90;;;;;;4773728;30;20191;-81
2024/01/13 05:12:37;;;;;;;8.50;6.13;;;1.60;99.90;;;;;;4773742;30;20188;-82
2024/01/13 05:15:03;;;;;;;9.30;6.57;;;1.60;99.90;;;;;;4772352;30;20260;-83
2024/01/13 05:17:29;;;;;;;7.97;5.83;;;1.60;99.90;;;;;;4773308;30;20219;-81
2024/01/13 05:19:55;;;;;;;10.27;6.47;;;1.70;99.90;;;;;;4773114;30;20191;-80
2024/01/13 05:22:21;;;;;;;9.60;6.00;;;1.70;99.90;;;;;;4770706;30;20204;-81
2024/01/13 05:24:46;;;;;;;7.83;5.77;;;1.60;99.90;;;;;;4774057;30;20191;-83
2024/01/13 05:27:14;;;;;;;10.50;5.63;;;1.70;99.90;;;;;;4757899;30;20206;-82
2024/01/13 05:29:40;;;;;;;9.77;5.83;;;1.70;99.90;;;;;;4773413;30;20184;-81
2024/01/13 05:32:07;;;;;;;9.47;5.50;;;1.70;99.90;;;;;;4773295;30;20360;-81
2024/01/13 05:34:33;;;;;;;8.63;5.60;;;1.60;99.90;;;;;;4773209;30;20619;-80
2024/01/13 05:36:59;;;;;;;7.50;5.47;;;1.60;99.90;;;;;;4772858;30;20303;-82
2024/01/13 05:39:24;;;;;;;8.33;5.20;;;1.60;99.90;;;;;;4756096;30;20284;-82
2024/01/13 05:41:50;;;;;;;6.97;4.97;;;1.50;99.90;;;;;;4767219;30;20193;-82
2024/01/13 05:44:16;;;;;;;8.50;5.47;;;1.60;99.90;;;;;;4771810;30;20636;-81
2024/01/13 05:46:42;;;;;;;7.90;5.00;;;1.60;99.90;;;;;;4772918;30;20196;-81
2024/01/13 05:49:08;;;;;;;8.43;5.30;;;1.50;99.90;;;;;;4772699;30;20196;-81
2024/01/13 05:51:35;;;;;;;9.17;5.30;;;1.50;99.90;;;;;;4772702;30;20519;-82
2024/01/13 05:54:01;;;;;;;7.90;5.10;;;1.50;99.90;;;;;;4773006;30;20295;-81
2024/01/13 05:56:26;;;;;;;9.60;5.10;;;1.60;99.90;;;;;;4773494;30;20730;-81
2024/01/13 05:58:52;;;;;;;8.50;5.40;;;1.60;99.90;;;;;;4772871;30;20199;-81
2024/01/13 06:01:18;;;;;;;7.23;4.37;;;1.60;99.90;;;;;;4772370;30;20198;-81
2024/01/13 06:03:43;;;;;;;6.10;4.27;;;1.60;99.90;;;;;;4767876;30;20279;-81
2024/01/13 06:06:09;;;;;;;6.20;4.37;;;1.60;99.90;;;;;;4754009;30;20286;-81
2024/01/13 06:08:35;;;;;;;6.93;4.50;;;1.70;99.90;;;;;;4772531;30;20255;-80
2024/01/13 06:11:02;;;;;;;5.50;4.00;;;1.60;99.90;;;;;;4755779;30;20203;-80
2024/01/13 06:13:28;;;;;;;7.40;4.50;;;1.60;99.90;;;;;;4745238;30;20527;-82
2024/01/13 06:15:54;;;;;;;7.80;4.53;;;1.60;99.90;;;;;;4771919;30;20223;-80
2024/01/13 06:18:20;;;;;;;6.07;4.10;;;1.60;99.90;;;;;;4772106;30;20270;-80
2024/01/13 06:20:46;;;;;;;5.97;4.33;;;1.60;99.90;;;;;;4772233;30;20240;-81
2024/01/13 06:23:11;;;;;;;5.60;4.00;;;1.60;99.90;;;;;;4772740;30;20249;-81
2024/01/13 06:25:37;;;;;;;6.77;4.07;;;1.60;99.90;;;;;;4772437;30;20187;-80
2024/01/13 06:28:03;;;;;;;6.77;4.37;;;1.50;99.90;;;;;;4755953;30;20208;-80
2024/01/13 06:30:29;;;;;;;7.77;4.40;;;1.50;99.90;;;;;;4770724;30;20198;-80
2024/01/13 06:32:54;;;;;;;9.23;4.50;;;1.60;99.90;;;;;;4772103;30;20197;-81
2024/01/13 06:35:20;;;;;;;7.50;4.47;;;1.60;99.90;;;;;;4770780;30;20234;-80
2024/01/13 06:37:46;;;;;;;6.90;4.13;;;1.60;99.90;;;;;;4772188;30;20234;-80
2024/01/13 06:40:12;;;;;;;4.97;3.70;;;1.60;99.90;;;;;;4756134;30;20199;-80
2024/01/13 06:42:37;;;;;;;5.33;3.60;;;1.50;99.90;;;;;;4771929;30;20201;-81
2024/01/13 06:45:04;;;;;;;5.50;4.00;;;1.60;99.90;;;;;;4769371;30;20573;-80
2024/01/13 06:47:29;;;;;;;6.57;3.80;;;1.50;99.90;;;;;;4771818;30;20197;-80
2024/01/13 06:49:55;;;;;;;5.73;3.47;;;1.50;99.90;;;;;;4772159;30;20194;-80
2024/01/13 06:52:21;;;;;;;5.53;3.50;;;1.50;99.90;;;;;;4763358;30;20317;-83
2024/01/13 06:54:46;;;;;;;3.93;3.03;;;1.60;99.90;;;;;;4765000;30;20196;-81
2024/01/13 06:57:12;;;;;;;4.57;3.13;;;1.50;99.90;;;;;;4770490;30;20226;-81
2024/01/13 06:59:38;;;;;;;5.07;3.50;;;1.50;99.90;;;;;;4742504;30;20533;-80
2024/01/13 07:02:04;;;;;;;6.37;3.63;;;1.50;99.90;;;;;;4771341;30;20257;-81
2024/01/13 07:04:31;;;;;;;6.30;3.23;;;1.50;99.90;;;;;;4770565;30;20195;-82
2024/01/13 07:06:56;;;;;;;6.87;3.73;;;1.50;99.90;;;;;;4755796;30;20199;-82
2024/01/13 07:09:22;;;;;;;4.90;3.77;;;1.50;99.90;;;;;;4770563;30;20710;-82
2024/01/13 07:11:49;;;;;;;4.63;3.30;;;1.40;99.90;;;;;;4771086;30;20625;-81
2024/01/13 07:14:14;;;;;;;4.20;3.33;;;1.40;99.90;;;;;;4766312;30;20196;-82
2024/01/13 07:16:40;;;;;;;4.87;3.50;;;1.50;99.90;;;;;;4754937;30;20289;-82
2024/01/13 07:19:07;;;;;;;6.60;3.90;;;1.40;99.90;;;;;;4755412;30;20618;-82
2024/01/13 07:21:33;;;;;;;5.07;3.70;;;1.50;99.90;;;;;;4746091;30;20338;-82
2024/01/13 07:23:58;;;;;;;6.03;4.37;;;1.40;99.90;;;;;;4752701;30;20599;-82
2024/01/13 07:26:24;;;;;;;5.30;3.83;;;1.50;99.90;;;;;;4753160;30;20192;-81
2024/01/13 07:28:50;;;;;;;5.13;3.87;;;1.40;99.90;;;;;;4753540;30;20220;-82
2024/01/13 07:31:16;;;;;;;5.77;4.03;;;1.40;99.90;;;;;;4753416;30;20692;-82
2024/01/13 07:33:42;;;;;;;5.90;4.13;;;1.50;99.90;;;;;;4753781;30;20651;-82
2024/01/13 07:36:08;;;;;;;5.60;4.23;;;1.50;99.90;;;;;;4752047;30;20301;-81
2024/01/13 07:38:34;;;;;;;5.20;4.03;;;1.50;99.90;;;;;;4752708;30;20223;-82
2024/01/13 07:41:00;;;;;;;5.80;4.10;;;1.40;99.90;;;;;;4767027;30;20625;-83
2024/01/13 07:43:25;;;;;;;8.07;4.73;;;1.50;99.90;;;;;;4741346;30;20203;-81
2024/01/13 07:45:51;;;;;;;5.77;4.10;;;1.50;99.90;;;;;;4754042;30;20329;-82
2024/01/13 07:48:17;;;;;;;4.93;3.60;;;1.50;99.90;;;;;;4767060;30;20207;-82
2024/01/13 07:50:42;;;;;;;6.37;3.73;;;1.50;99.90;;;;;;4767291;30;20197;-81
2024/01/13 07:53:08;;;;;;;6.03;3.63;;;1.60;99.90;;;;;;4752550;30;20196;-82
2024/01/13 07:55:34;;;;;;;6.67;3.50;;;1.60;99.90;;;;;;4752581;30;20258;-83
2024/01/13 07:58:00;;;;;;;6.60;3.60;;;1.60;99.90;;;;;;4753511;30;20599;-82
2024/01/13 08:00:27;;;;;;;4.37;3.37;;;1.60;99.90;;;;;;4754872;30;20197;-82
2024/01/13 08:02:55;;;;;;;4.57;3.50;;;1.60;99.90;;;;;;4756598;30;20220;-82
2024/01/13 08:05:21;;;;;;;5.33;3.50;;;1.60;99.90;;;;;;4761838;30;20288;-82
2024/01/13 08:07:47;;;;;;;4.87;3.50;;;1.60;99.90;;;;;;4760425;30;20206;-82
2024/01/13 08:10:13;;;;;;;5.93;3.60;;;1.60;99.90;;;;;;4774780;30;20199;-82
2024/01/13 08:12:40;;;;;;;8.73;3.93;;;1.60;99.90;;;;;;4759012;30;20260;-83
2024/01/13 08:15:07;;;;;;;5.27;3.57;;;1.60;99.90;;;;;;4755266;30;20710;-83
2024/01/13 08:17:33;;;;;;;4.43;3.67;;;1.70;99.90;;;;;;4758682;30;20676;-82
2024/01/13 08:19:58;;;;;;;4.23;3.40;;;1.70;99.90;;;;;;4775388;30;20234;-82
2024/01/13 08:22:24;;;;;;;4.13;3.03;;;1.80;99.90;;;;;;4759685;30;20196;-82
2024/01/13 08:24:50;;;;;;;3.73;2.77;;;1.70;99.90;;;;;;4774399;30;20274;-81
2024/01/13 08:27:15;;;;;;;3.67;2.80;;;1.70;99.90;;;;;;4775755;30;20192;-81
2024/01/13 08:29:41;;;;;;;4.10;2.63;;;1.70;99.90;;;;;;4776268;30;20203;-82
2024/01/13 08:32:07;;;;;;;3.73;3.00;;;1.80;99.90;;;;;;4761421;30;20206;-80
2024/01/13 08:34:33;;;;;;;3.93;2.90;;;1.70;99.90;;;;;;4761413;30;20546;-82
2024/01/13 08:36:58;;;;;;;3.60;2.70;;;1.80;99.90;;;;;;4776952;30;20230;-81
2024/01/13 08:39:24;;;;;;;3.53;2.53;;;1.80;99.90;;;;;;4775423;30;20221;-81
2024/01/13 08:41:50;;;;;;;2.63;2.00;;;1.70;99.90;;;;;;4776150;30;20188;-82
2024/01/13 08:44:16;;;;;;;2.87;2.33;;;1.70;99.90;;;;;;4771430;30;20652;-84
2024/01/13 08:46:41;;;;;;;2.93;2.27;;;1.80;99.90;;;;;;4776068;30;20591;-83
2024/01/13 08:49:08;;;;;;;3.53;2.30;;;1.70;99.90;;;;;;4776450;30;20195;-84
2024/01/13 08:51:34;;;;;;;7.57;2.30;;;1.80;99.90;;;;;;4775263;30;20199;-82
2024/01/13 08:54:00;;;;;;;3.03;2.23;;;1.80;99.90;;;;;;4775738;30;20203;-82
2024/01/13 08:56:26;;;;;;;2.90;2.10;;;1.80;99.90;;;;;;4776476;30;20612;-81
2024/01/13 08:58:51;;;;;;;2.33;1.93;;;1.80;99.90;;;;;;4776390;30;20206;-81
2024/01/13 09:01:18;;;;;;;3.03;2.13;;;1.70;99.90;;;;;;4760253;30;20191;-82
2024/01/13 09:03:45;;;;;;;2.70;1.90;;;1.80;99.90;;;;;;4772338;30;20191;-82
2024/01/13 09:06:12;;;;;;;2.57;1.90;;;1.70;99.90;;;;;;4774620;30;20221;-82
2024/01/13 09:08:38;;;;;;;2.60;2.20;;;1.70;99.90;;;;;;4757989;30;20196;-82
2024/01/13 09:11:05;;;;;;;2.70;2.20;;;1.70;99.90;;;;;;4757007;30;20647;-83
2024/01/13 09:13:30;;;;;;;2.53;1.90;;;1.80;99.90;;;;;;4760038;30;20215;-83
2024/01/13 09:15:56;;;;;;;4.53;2.10;;;1.80;99.90;;;;;;4772702;30;20628;-81
2024/01/13 09:18:22;;;;;;;2.83;2.13;;;1.80;99.90;;;;;;4771851;30;20231;-83
2024/01/13 09:20:47;;;;;;;3.90;2.33;;;1.80;99.90;;;;;;4767025;30;20232;-82
2024/01/13 09:23:13;;;;;;;2.73;2.23;;;1.80;99.90;;;;;;4771087;30;20192;-80
2024/01/13 09:25:39;;;;;;;3.20;2.30;;;1.80;99.90;;;;;;4768374;30;20191;-82
2024/01/13 09:28:04;;;;;;;2.77;2.40;;;1.90;99.90;;;;;;4771278;30;20255;-83
2024/01/13 09:30:33;;;;;;;2.60;2.30;;;2.00;99.90;;;;;;4768780;30;20273;-82
2024/01/13 09:32:59;;;;;;;2.73;1.90;;;2.00;99.90;;;;;;4771802;30;20550;-83
2024/01/13 09:35:25;;;;;;;4.90;2.20;;;2.00;99.90;;;;;;4756603;30;20195;-82
2024/01/13 09:37:50;;;;;;;2.47;1.87;;;2.00;99.90;;;;;;4772477;30;20215;-83
2024/01/13 09:40:18;;;;;;;2.50;1.90;;;2.00;99.90;;;;;;4770954;30;20592;-85
2024/01/13 09:42:53;;;;;;;3.70;2.13;;;2.00;99.90;;;;;;4771564;30;20322;-82
2024/01/13 09:45:20;;;;;;;2.93;1.90;;;2.00;99.90;;;;;;4772562;30;20558;-82
2024/01/13 09:47:46;;;;;;;4.03;2.07;;;2.00;99.90;;;;;;4772461;30;20411;-83
2024/01/13 09:50:12;;;;;;;4.10;2.50;;;2.00;99.90;;;;;;4771096;30;20199;-82
2024/01/13 09:52:43;;;;;;;2.77;1.90;;;2.00;99.90;;;;;;4772199;30;20192;-81
2024/01/13 09:55:11;;;;;;;2.90;1.90;;;2.10;99.90;;;;;;4768429;30;20215;-82
2024/01/13 09:57:37;;;;;;;2.70;1.90;;;2.10;99.90;;;;;;4756194;30;20223;-81
2024/01/13 10:00:04;;;;;;;1.80;1.50;;;2.10;99.90;;;;;;4771003;30;20287;-82
2024/01/13 10:02:30;;;;;;;2.50;1.90;;;2.10;99.90;;;;;;4766789;30;20192;-82
2024/01/13 10:04:55;;;;;;;3.50;2.00;;;2.10;99.90;;;;;;4772182;30;20540;-84
2024/01/13 10:07:21;;;;;;;3.87;2.20;;;2.10;99.90;;;;;;4771641;30;20214;-84
2024/01/13 10:09:48;;;;;;;3.63;2.03;;;2.10;99.90;;;;;;4755820;30;20238;-82
2024/01/13 10:12:13;;;;;;;2.70;2.07;;;2.10;99.90;;;;;;4772410;30;20180;-83
2024/01/13 10:14:41;;;;;;;3.60;2.20;;;2.20;99.90;;;;;;4772077;30;20192;-83
2024/01/13 10:17:07;;;;;;;2.47;1.80;;;2.20;99.90;;;;;;4755972;30;20727;-84
2024/01/13 10:19:40;;;;;;;2.63;2.20;;;2.30;99.90;;;;;;4771810;30;20271;-82
2024/01/13 10:22:06;;;;;;;2.83;2.00;;;2.30;99.90;;;;;;4771544;30;20251;-86
2024/01/13 10:24:33;;;;;;;3.90;2.20;;;2.40;99.90;;;;;;4766952;30;20238;-83
2024/01/13 10:26:59;;;;;;;2.33;2.13;;;2.40;99.90;;;;;;4771612;30;20624;-83
2024/01/13 10:29:25;;;;;;;2.80;2.13;;;2.30;99.90;;;;;;4764375;30;20196;-83
2024/01/13 10:31:51;;;;;;;2.43;2.10;;;2.30;99.90;;;;;;4771859;30;20199;-84
2024/01/13 10:34:20;;;;;;;3.43;2.70;;;2.30;99.90;;;;;;4771564;30;20200;-83
2024/01/13 10:36:46;;;;;;;3.60;3.00;;;2.30;99.90;;;;;;4755465;30;20281;-86
2024/01/13 10:39:11;;;;;;;3.53;3.03;;;2.30;99.90;;;;;;4755015;30;20294;-82
2024/01/13 10:41:42;;;;;;;4.33;3.00;;;2.30;99.90;;;;;;4767223;30;20201;-85
2024/01/13 10:44:09;;;;;;;3.70;2.77;;;2.30;99.90;;;;;;4769246;30;20195;-84
2024/01/13 10:46:38;;;;;;;4.27;2.77;;;2.40;99.90;;;;;;4755411;30;20195;-83
2024/01/13 10:49:27;;;;;;;3.53;2.83;;;2.40;99.90;;;;;;4755209;30;20254;-83
2024/01/13 10:52:03;;;;;;;3.10;2.57;;;2.40;99.90;;;;;;4771444;30;20188;-83
2024/01/13 10:54:29;;;;;;;3.93;2.80;;;2.50;99.90;;;;;;4751526;30;20227;-82
2024/01/13 10:56:55;;;;;;;3.60;2.80;;;2.50;99.90;;;;;;4770075;30;20228;-83
2024/01/13 10:59:23;;;;;;;4.10;2.80;;;2.60;99.90;;;;;;4771126;30;20194;-83
2024/01/13 11:01:50;;;;;;;3.57;2.90;;;2.60;99.90;;;;;;4771483;30;20640;-84
2024/01/13 11:04:17;;;;;;;3.50;2.70;;;2.60;99.90;;;;;;4755744;30;20200;-85
2024/01/13 11:06:43;;;;;;;3.80;2.83;;;2.60;99.90;;;;;;4766505;30;20196;-83
2024/01/13 11:09:13;;;;;;;4.27;2.90;;;2.60;99.90;;;;;;4745102;30;20203;-85
2024/01/13 11:12:09;;;;;;;3.47;2.63;;;2.50;99.90;;;;;;4749818;30;20195;-83
2024/01/13 11:14:44;;;;;;;4.83;3.50;;;2.60;99.90;;;;;;4771740;30;20505;-83
2024/01/13 11:17:10;;;;;;;4.13;3.27;;;2.60;99.90;;;;;;4771313;30;20234;-83
2024/01/13 11:19:36;;;;;;;3.60;3.20;;;2.60;99.90;;;;;;4755563;30;20518;-84
2024/01/13 11:22:33;;;;;;;7.57;3.37;;;2.60;99.90;;;;;;4755114;30;20688;-84
2024/01/13 11:24:59;;;;;;;5.00;3.73;;;2.60;99.90;;;;;;4747847;30;20249;-83
2024/01/13 11:27:25;;;;;;;6.97;3.90;;;2.60;99.90;;;;;;4767146;30;20238;-83
2024/01/13 11:29:51;;;;;;;5.47;4.20;;;2.60;99.90;;;;;;4759601;30;20211;-85
2024/01/13 11:32:17;;;;;;;7.07;4.60;;;2.50;99.90;;;;;;4753278;30;20196;-85
2024/01/13 11:34:44;;;;;;;7.50;4.80;;;2.50;99.90;;;;;;4758402;30;20245;-83
2024/01/13 11:37:10;;;;;;;6.67;4.53;;;2.50;99.90;;;;;;4754347;30;20231;-82
2024/01/13 11:39:36;;;;;;;6.23;5.03;;;2.60;99.90;;;;;;4747590;30;20223;-83
2024/01/13 11:42:03;;;;;;;7.90;5.10;;;2.60;99.90;;;;;;4763678;30;20191;-84
2024/01/13 11:44:43;;;;;;;6.83;4.97;;;2.50;99.90;;;;;;4770865;30;20188;-83
2024/01/13 11:47:11;;;;;;;8.33;5.07;;;2.50;99.90;;;;;;4747115;30;20196;-83
2024/01/13 11:49:38;;;;;;;7.70;5.77;;;2.60;99.90;;;;;;4770437;30;20195;-84
2024/01/13 11:52:12;;;;;;;6.97;5.10;;;2.70;99.90;;;;;;4747487;30;20254;-85
2024/01/13 11:54:39;;;;;;;8.27;5.13;;;2.70;99.90;;;;;;4762456;30;20199;-83
2024/01/13 11:57:16;;;;;;;9.10;6.07;;;2.70;99.90;;;;;;4767700;30;20273;-84
2024/01/13 11:59:42;;;;;;;6.93;5.40;;;2.70;99.90;;;;;;4770663;30;20192;-85
2024/01/13 12:02:09;;;;;;;9.03;5.30;;;2.80;99.90;;;;;;4754176;30;20200;-83
2024/01/13 12:04:36;;;;;;;6.83;5.27;;;2.80;99.90;;;;;;4767751;30;20241;-85
2024/01/13 12:07:06;;;;;;;7.43;5.30;;;2.80;99.90;;;;;;4770667;30;20188;-84
2024/01/13 12:09:31;;;;;;;8.00;4.97;;;2.90;99.90;;;;;;4770219;30;20198;-86
2024/01/13 12:12:07;;;;;;;7.37;5.13;;;2.90;99.90;;;;;;4770530;30;20263;-85
2024/01/13 12:14:35;;;;;;;7.30;4.90;;;2.90;99.90;;;;;;4754635;30;20188;-85
2024/01/13 12:17:03;;;;;;;6.10;4.50;;;2.90;99.90;;;;;;4770464;30;20253;-85
2024/01/13 12:19:36;;;;;;;6.07;4.70;;;2.90;99.90;;;;;;4751171;30;20203;-86
2024/01/13 12:22:06;;;;;;;6.27;4.60;;;3.00;99.90;;;;;;4767126;30;20265;-84
2024/01/13 12:24:33;;;;;;;5.27;3.47;;;2.90;99.90;;;;;;4737186;30;20193;-85
2024/01/13 12:26:59;;;;;;;5.13;4.10;;;2.90;99.90;;;;;;4750672;30;20218;-85
2024/01/13 12:29:35;;;;;;;6.27;4.50;;;2.90;99.90;;;;;;4754014;30;20250;-84
2024/01/13 12:32:03;;;;;;;5.63;4.33;;;2.80;99.90;;;;;;4754369;30;20191;-84
2024/01/13 12:34:31;;;;;;;8.17;4.70;;;2.80;99.90;;;;;;4752268;30;20199;-85
2024/01/13 12:36:57;;;;;;;5.63;4.57;;;2.70;99.90;;;;;;4770163;30;20686;-88
2024/01/13 12:39:24;;;;;;;6.20;4.73;;;2.70;99.90;;;;;;4753913;30;20196;-84
2024/01/13 12:41:51;;;;;;;6.37;4.73;;;2.70;99.90;;;;;;4754297;30;20192;-86
2024/01/13 12:44:17;;;;;;;6.53;4.90;;;2.70;99.90;;;;;;4752324;30;20227;-85
2024/01/13 12:46:43;;;;;;;6.63;4.87;;;2.60;99.90;;;;;;4759844;30;20633;-85
2024/01/13 12:49:18;;;;;;;7.20;4.90;;;2.70;99.90;;;;;;4761842;30;20188;-85